Time;durP1;ratioP1;P1;durP2;ratioP2;P2;SDS_P1;SDS_P2;PMS_P1;PMS_P2;Temp;Humidity;BMP_temperature;BMP_pressure;BME280_temperature;BME280_humidity;BME280_pressure;Samples;Min_cycle;Max_cycle;Signal;HPM_P1;HPM_P2
2023/01/20 00:01:08;;;;;;;3.75;1.17;;;;;;;;;;4974134;28;20452;-67
2023/01/20 00:03:35;;;;;;;14.35;1.73;;;;;;;;;;4972520;28;20050;-67
2023/01/20 00:06:02;;;;;;;13.18;2.08;;;;;;;;;;4991324;28;20050;-67
2023/01/20 00:08:28;;;;;;;13.68;2.33;;;;;;;;;;4973403;28;20058;-65
2023/01/20 00:10:55;;;;;;;14.00;1.83;;;;;;;;;;4979310;28;20103;-67
2023/01/20 00:13:22;;;;;;;12.57;2.33;;;;;;;;;;4979454;28;20890;-68
2023/01/20 00:15:48;;;;;;;15.48;2.30;;;;;;;;;;4986726;28;20124;-68
2023/01/20 00:18:15;;;;;;;11.18;2.45;;;;;;;;;;5001500;28;20077;-68
2023/01/20 00:20:42;;;;;;;8.80;1.90;;;;;;;;;;4981330;28;20050;-69
2023/01/20 00:23:09;;;;;;;6.70;1.70;;;;;;;;;;4976645;28;20046;-67
2023/01/20 00:25:36;;;;;;;17.40;2.00;;;;;;;;;;4977755;28;20723;-69
2023/01/20 00:28:03;;;;;;;12.20;2.75;;;;;;;;;;4979826;28;20046;-68
2023/01/20 00:30:29;;;;;;;17.90;3.53;;;;;;;;;;4976450;28;21388;-67
2023/01/20 00:32:56;;;;;;;11.82;2.45;;;;;;;;;;4982734;28;20153;-67
2023/01/20 00:35:23;;;;;;;10.77;2.20;;;;;;;;;;4977834;28;20030;-68
2023/01/20 00:37:49;;;;;;;14.25;2.50;;;;;;;;;;4978739;28;20038;-68
2023/01/20 00:40:16;;;;;;;18.65;3.38;;;;;;;;;;4978939;28;20115;-69
2023/01/20 00:42:43;;;;;;;12.60;2.33;;;;;;;;;;4992097;28;20030;-69
2023/01/20 00:45:09;;;;;;;12.07;2.38;;;;;;;;;;4991837;28;20046;-69
2023/01/20 00:47:36;;;;;;;14.63;2.10;;;;;;;;;;4976747;28;20062;-69
2023/01/20 00:50:03;;;;;;;17.90;2.67;;;;;;;;;;4979493;28;20069;-68
2023/01/20 00:52:30;;;;;;;6.10;2.28;;;;;;;;;;4976889;28;20041;-68
2023/01/20 00:54:56;;;;;;;12.38;2.55;;;;;;;;;;4992213;28;20039;-68
2023/01/20 00:57:23;;;;;;;15.00;2.70;;;;;;;;;;4976685;28;20042;-67
2023/01/20 00:59:49;;;;;;;15.15;2.47;;;;;;;;;;4978387;28;20038;-68
2023/01/20 01:02:16;;;;;;;16.13;2.95;;;;;;;;;;4978710;28;20046;-68
2023/01/20 01:04:43;;;;;;;11.43;3.10;;;;;;;;;;4977481;28;20527;-68
2023/01/20 01:07:10;;;;;;;10.98;2.67;;;;;;;;;;4978063;28;20605;-68
2023/01/20 01:09:36;;;;;;;22.63;2.85;;;;;;;;;;4976908;28;20644;-68
2023/01/20 01:12:03;;;;;;;14.68;2.85;;;;;;;;;;4978638;28;20376;-67
2023/01/20 01:14:31;;;;;;;12.27;2.88;;;;;;;;;;4976822;28;20045;-68
2023/01/20 01:16:57;;;;;;;6.70;2.58;;;;;;;;;;4975587;28;20041;-70
2023/01/20 01:19:25;;;;;;;13.07;2.80;;;;;;;;;;4976793;28;20096;-69
2023/01/20 01:21:52;;;;;;;13.95;2.35;;;;;;;;;;4977115;28;20044;-67
2023/01/20 01:24:19;;;;;;;8.32;1.80;;;;;;;;;;4977607;28;20125;-67
2023/01/20 01:26:45;;;;;;;12.27;2.30;;;;;;;;;;4978309;28;20053;-70
2023/01/20 01:29:12;;;;;;;18.27;2.17;;;;;;;;;;4977323;28;20412;-66
2023/01/20 01:31:38;;;;;;;6.88;2.30;;;;;;;;;;4977327;28;20038;-69
2023/01/20 01:34:09;;;;;;;10.15;1.95;;;;;;;;;;4977261;28;20093;-67
2023/01/20 01:36:36;;;;;;;9.68;2.33;;;;;;;;;;4975014;28;20125;-67
2023/01/20 01:39:02;;;;;;;20.77;2.40;;;;;;;;;;4991406;28;20165;-69
2023/01/20 01:41:29;;;;;;;7.60;2.20;;;;;;;;;;4977457;28;20093;-68
2023/01/20 01:44:14;;;;;;;11.95;2.10;;;;;;;;;;4991286;28;20123;-68
2023/01/20 01:46:42;;;;;;;22.20;2.53;;;;;;;;;;4977158;28;20053;-68
2023/01/20 01:49:22;;;;;;;16.05;2.17;;;;;;;;;;4976719;28;20046;-67
2023/01/20 01:51:58;;;;;;;9.30;2.10;;;;;;;;;;4976868;28;20558;-69
2023/01/20 01:54:27;;;;;;;10.20;2.42;;;;;;;;;;4974917;28;20725;-69
2023/01/20 01:56:54;;;;;;;6.03;1.70;;;;;;;;;;4975238;28;20494;-68
2023/01/20 01:59:21;;;;;;;9.73;2.47;;;;;;;;;;4976224;28;20046;-67
2023/01/20 02:01:51;;;;;;;6.75;1.70;;;;;;;;;;4976600;28;20042;-68
2023/01/20 02:04:23;;;;;;;6.75;1.85;;;;;;;;;;4990428;28;20530;-67
2023/01/20 02:07:01;;;;;;;12.18;1.90;;;;;;;;;;4975110;28;20092;-69
2023/01/20 02:09:28;;;;;;;10.60;2.08;;;;;;;;;;4975961;28;20133;-68
2023/01/20 02:11:56;;;;;;;10.27;1.92;;;;;;;;;;4978232;28;20035;-68
2023/01/20 02:14:29;;;;;;;9.88;2.15;;;;;;;;;;4974048;28;20070;-68
2023/01/20 02:17:14;;;;;;;8.25;1.83;;;;;;;;;;4976666;28;20518;-69
2023/01/20 02:19:49;;;;;;;8.18;2.35;;;;;;;;;;4975735;28;20038;-68
2023/01/20 02:22:19;;;;;;;11.70;2.13;;;;;;;;;;4975552;28;20518;-70
2023/01/20 02:24:45;;;;;;;12.55;2.83;;;;;;;;;;4976490;28;20065;-69
2023/01/20 02:27:22;;;;;;;7.55;2.63;;;;;;;;;;4976699;28;20064;-68
2023/01/20 02:29:58;;;;;;;8.68;2.58;;;;;;;;;;4987316;28;20041;-70
2023/01/20 02:32:25;;;;;;;14.15;3.08;;;;;;;;;;4992888;28;20049;-69
2023/01/20 02:35:01;;;;;;;10.15;2.70;;;;;;;;;;4998399;28;20043;-69
2023/01/20 02:37:29;;;;;;;12.32;3.00;;;;;;;;;;4993043;28;20042;-70
2023/01/20 02:40:06;;;;;;;9.02;3.00;;;;;;;;;;4994785;28;20041;-69
2023/01/20 02:42:47;;;;;;;13.55;2.95;;;;;;;;;;4994463;28;20296;-69
2023/01/20 02:45:23;;;;;;;7.38;2.58;;;;;;;;;;4995000;28;20049;-69
2023/01/20 02:48:12;;;;;;;17.83;2.97;;;;;;;;;;5001180;28;20503;-71
2023/01/20 02:50:57;;;;;;;10.00;2.50;;;;;;;;;;4996308;28;20276;-68
2023/01/20 02:53:25;;;;;;;9.65;2.63;;;;;;;;;;4991202;28;20045;-69
2023/01/20 02:55:53;;;;;;;7.05;3.08;;;;;;;;;;4996245;28;20034;-69
2023/01/20 02:58:23;;;;;;;10.60;2.85;;;;;;;;;;4995035;28;20069;-69
2023/01/20 03:00:58;;;;;;;13.35;2.65;;;;;;;;;;4995800;28;20125;-69
2023/01/20 03:03:29;;;;;;;15.50;3.03;;;;;;;;;;4994444;28;20084;-68
2023/01/20 03:05:57;;;;;;;9.48;3.25;;;;;;;;;;4996065;28;20315;-69
2023/01/20 03:08:24;;;;;;;11.73;3.22;;;;;;;;;;5010125;28;20041;-68
2023/01/20 03:10:52;;;;;;;13.05;2.72;;;;;;;;;;4997250;28;20038;-69
2023/01/20 03:13:19;;;;;;;9.45;3.15;;;;;;;;;;5006400;28;20037;-72
2023/01/20 03:15:49;;;;;;;10.85;2.58;;;;;;;;;;4995926;28;20035;-69
2023/01/20 03:18:15;;;;;;;16.35;2.80;;;;;;;;;;4987235;28;20069;-68
2023/01/20 03:20:42;;;;;;;8.80;2.05;;;;;;;;;;5011969;28;20145;-67
2023/01/20 03:23:10;;;;;;;14.60;2.28;;;;;;;;;;4987097;28;20072;-68
2023/01/20 03:25:38;;;;;;;7.50;2.25;;;;;;;;;;4987425;28;20045;-67
2023/01/20 03:28:04;;;;;;;15.75;2.50;;;;;;;;;;4994908;28;20041;-67
2023/01/20 03:30:31;;;;;;;6.85;2.42;;;;;;;;;;4994157;28;20081;-69
2023/01/20 03:32:58;;;;;;;12.93;2.28;;;;;;;;;;4995321;28;20034;-68
2023/01/20 03:35:25;;;;;;;4.63;1.70;;;;;;;;;;4986770;28;20041;-67
2023/01/20 03:37:52;;;;;;;5.95;1.98;;;;;;;;;;4996797;28;20132;-69
2023/01/20 03:40:22;;;;;;;5.40;1.90;;;;;;;;;;4990560;28;20038;-70
2023/01/20 03:42:52;;;;;;;11.48;2.08;;;;;;;;;;4992054;28;20112;-69
2023/01/20 03:45:23;;;;;;;9.88;2.00;;;;;;;;;;4997139;28;20042;-70
2023/01/20 03:47:57;;;;;;;5.90;1.73;;;;;;;;;;4999279;28;20416;-68
2023/01/20 03:50:43;;;;;;;10.98;1.80;;;;;;;;;;4998614;28;20060;-68
2023/01/20 03:53:21;;;;;;;6.82;2.25;;;;;;;;;;4999066;28;20062;-69
2023/01/20 03:55:53;;;;;;;7.80;1.95;;;;;;;;;;4999754;28;20032;-67
2023/01/20 03:58:21;;;;;;;9.13;2.70;;;;;;;;;;4999122;28;20555;-69
2023/01/20 04:00:49;;;;;;;12.40;6.05;;;;;;;;;;4998659;28;20042;-68
2023/01/20 04:03:21;;;;;;;11.52;4.35;;;;;;;;;;5012387;28;20565;-68
2023/01/20 04:05:48;;;;;;;8.00;3.03;;;;;;;;;;4998885;28;20040;-68
2023/01/20 04:08:17;;;;;;;10.20;2.45;;;;;;;;;;4998589;28;20046;-69
2023/01/20 04:10:45;;;;;;;7.63;2.03;;;;;;;;;;4978373;28;20045;-67
2023/01/20 04:13:12;;;;;;;4.78;1.65;;;;;;;;;;4977826;28;20122;-67
2023/01/20 04:15:40;;;;;;;7.55;2.08;;;;;;;;;;4978053;28;20170;-66
2023/01/20 04:18:20;;;;;;;7.22;2.25;;;;;;;;;;4977522;28;20056;-68
2023/01/20 04:20:50;;;;;;;10.98;2.85;;;;;;;;;;4978331;28;20062;-68
2023/01/20 04:23:19;;;;;;;10.75;2.90;;;;;;;;;;4979209;28;20031;-68
2023/01/20 04:25:45;;;;;;;13.60;2.97;;;;;;;;;;4979167;28;21038;-69
2023/01/20 04:28:12;;;;;;;9.00;2.35;;;;;;;;;;4979226;28;20559;-68
2023/01/20 04:30:39;;;;;;;9.98;1.80;;;;;;;;;;4977502;28;20053;-69
2023/01/20 04:33:05;;;;;;;8.13;1.75;;;;;;;;;;4993182;28;20042;-69
2023/01/20 04:35:32;;;;;;;7.45;1.70;;;;;;;;;;4979030;28;20031;-68
2023/01/20 04:37:59;;;;;;;13.75;2.03;;;;;;;;;;4979269;28;20048;-67
2023/01/20 04:40:26;;;;;;;8.27;2.10;;;;;;;;;;4977526;28;20126;-69
2023/01/20 04:42:53;;;;;;;11.38;2.33;;;;;;;;;;4978764;28;20561;-68
2023/01/20 04:45:19;;;;;;;9.73;1.95;;;;;;;;;;4978316;28;20120;-69
2023/01/20 04:47:46;;;;;;;9.25;2.00;;;;;;;;;;4976695;28;20152;-69
2023/01/20 04:50:14;;;;;;;9.77;2.33;;;;;;;;;;4977938;28;20057;-68
2023/01/20 04:52:41;;;;;;;4.25;1.70;;;;;;;;;;4977718;28;20113;-69
2023/01/20 04:55:08;;;;;;;5.47;1.60;;;;;;;;;;4977854;28;20042;-69
2023/01/20 04:57:34;;;;;;;4.32;1.40;;;;;;;;;;4977526;28;20120;-70
2023/01/20 05:00:01;;;;;;;5.93;1.70;;;;;;;;;;4983646;28;20065;-68
2023/01/20 05:02:28;;;;;;;13.10;2.15;;;;;;;;;;4977168;28;20050;-69
2023/01/20 05:04:54;;;;;;;9.02;2.60;;;;;;;;;;4994169;28;20042;-69
2023/01/20 05:07:21;;;;;;;5.65;1.77;;;;;;;;;;4992898;28;20050;-68
2023/01/20 05:09:47;;;;;;;7.00;1.77;;;;;;;;;;4978940;28;20049;-70
2023/01/20 05:12:14;;;;;;;12.60;1.98;;;;;;;;;;4991976;28;20449;-69
2023/01/20 05:14:41;;;;;;;16.85;2.20;;;;;;;;;;4976744;28;20168;-69
2023/01/20 05:17:07;;;;;;;7.75;1.80;;;;;;;;;;4978000;28;21707;-69
2023/01/20 05:19:34;;;;;;;9.68;1.58;;;;;;;;;;4976522;28;20052;-70
2023/01/20 05:22:01;;;;;;;7.35;1.45;;;;;;;;;;4978143;28;20438;-69
2023/01/20 05:24:27;;;;;;;8.57;1.60;;;;;;;;;;4978084;28;20043;-69
2023/01/20 05:26:54;;;;;;;6.50;1.80;;;;;;;;;;4979146;28;20050;-68
2023/01/20 05:29:20;;;;;;;4.68;1.25;;;;;;;;;;4978049;28;20052;-69
2023/01/20 05:31:47;;;;;;;5.57;1.13;;;;;;;;;;4977245;28;20713;-69
2023/01/20 05:34:15;;;;;;;3.60;1.30;;;;;;;;;;4992899;28;20046;-69
2023/01/20 05:36:41;;;;;;;6.60;1.35;;;;;;;;;;4979177;28;20138;-69
2023/01/20 05:39:08;;;;;;;5.13;1.30;;;;;;;;;;4994373;28;20065;-73
2023/01/20 05:41:35;;;;;;;4.03;1.27;;;;;;;;;;4992778;28;20057;-67
2023/01/20 05:44:01;;;;;;;3.13;1.20;;;;;;;;;;4978220;28;20046;-67
2023/01/20 05:46:28;;;;;;;4.80;1.20;;;;;;;;;;4977247;28;20046;-68
2023/01/20 05:48:55;;;;;;;5.72;1.48;;;;;;;;;;4976591;28;20062;-67
2023/01/20 05:51:21;;;;;;;3.35;1.05;;;;;;;;;;4977625;28;20077;-68
2023/01/20 05:53:48;;;;;;;3.55;1.15;;;;;;;;;;4971163;28;20776;-70
2023/01/20 05:56:15;;;;;;;4.50;1.20;;;;;;;;;;4977632;28;20042;-68
2023/01/20 05:58:41;;;;;;;2.78;0.85;;;;;;;;;;4976439;28;20030;-68
2023/01/20 06:01:09;;;;;;;4.50;1.00;;;;;;;;;;4977860;28;20165;-67
2023/01/20 06:03:36;;;;;;;5.60;0.90;;;;;;;;;;4977271;28;20077;-68
2023/01/20 06:06:04;;;;;;;2.20;0.80;;;;;;;;;;4978655;28;20038;-68
2023/01/20 06:08:31;;;;;;;4.80;1.02;;;;;;;;;;4966165;28;20050;-67
2023/01/20 06:10:58;;;;;;;7.85;1.30;;;;;;;;;;4977595;28;20038;-69
2023/01/20 06:13:25;;;;;;;6.85;1.00;;;;;;;;;;4976540;28;21530;-68
2023/01/20 06:15:55;;;;;;;3.35;1.10;;;;;;;;;;4977170;28;20218;-69
2023/01/20 06:18:22;;;;;;;2.92;1.00;;;;;;;;;;4977729;28;20034;-68
2023/01/20 06:20:48;;;;;;;2.60;0.80;;;;;;;;;;4977629;28;20035;-69
2023/01/20 06:23:35;;;;;;;2.72;0.80;;;;;;;;;;4992292;28;20038;-69
2023/01/20 06:26:08;;;;;;;5.03;1.02;;;;;;;;;;4959776;28;20030;-69
2023/01/20 06:28:35;;;;;;;3.15;0.82;;;;;;;;;;4967549;28;20039;-70
2023/01/20 06:31:04;;;;;;;4.65;1.08;;;;;;;;;;4968896;28;20027;-69
2023/01/20 06:33:31;;;;;;;3.60;1.00;;;;;;;;;;4970307;28;20031;-68
2023/01/20 06:35:58;;;;;;;5.53;1.20;;;;;;;;;;4973268;28;20113;-69
2023/01/20 06:38:25;;;;;;;4.30;0.93;;;;;;;;;;4968910;28;20038;-69
2023/01/20 06:40:56;;;;;;;2.45;0.82;;;;;;;;;;4970179;28;20092;-69
2023/01/20 06:43:23;;;;;;;2.97;0.90;;;;;;;;;;4966384;28;20955;-69
2023/01/20 06:45:49;;;;;;;12.00;1.38;;;;;;;;;;4968087;28;20047;-69
2023/01/20 06:48:16;;;;;;;8.30;1.10;;;;;;;;;;4968635;28;20046;-69
2023/01/20 06:50:43;;;;;;;2.63;0.85;;;;;;;;;;4968183;28;20115;-69
2023/01/20 06:53:10;;;;;;;2.60;0.90;;;;;;;;;;4967549;28;20771;-70
2023/01/20 06:55:36;;;;;;;3.92;0.95;;;;;;;;;;4966914;28;20084;-69
2023/01/20 06:58:03;;;;;;;2.17;0.70;;;;;;;;;;4975758;28;20038;-70
2023/01/20 07:00:30;;;;;;;3.38;1.15;;;;;;;;;;4990193;28;20038;-70
2023/01/20 07:02:56;;;;;;;4.13;0.90;;;;;;;;;;4976270;28;20046;-70
2023/01/20 07:05:23;;;;;;;7.53;1.10;;;;;;;;;;4975744;28;20042;-70
2023/01/20 07:07:50;;;;;;;4.45;1.00;;;;;;;;;;4977363;28;20392;-70
2023/01/20 07:10:16;;;;;;;2.25;0.73;;;;;;;;;;4979007;28;20046;-71
2023/01/20 07:12:43;;;;;;;6.80;1.00;;;;;;;;;;4977027;28;20038;-68
2023/01/20 07:15:10;;;;;;;4.70;0.90;;;;;;;;;;4978270;28;20099;-69
2023/01/20 07:17:36;;;;;;;2.88;0.80;;;;;;;;;;4996981;28;20133;-69
2023/01/20 07:20:03;;;;;;;2.70;0.70;;;;;;;;;;4976901;28;20034;-72
2023/01/20 07:22:33;;;;;;;6.30;1.10;;;;;;;;;;4980211;28;20048;-71
2023/01/20 07:24:59;;;;;;;4.43;0.82;;;;;;;;;;4967279;28;20049;-69
2023/01/20 07:27:26;;;;;;;4.82;0.60;;;;;;;;;;4982000;28;20612;-70
2023/01/20 07:29:52;;;;;;;2.90;0.85;;;;;;;;;;4979530;28;20161;-70
2023/01/20 07:32:19;;;;;;;4.47;1.02;;;;;;;;;;4975935;28;20121;-70
2023/01/20 07:34:46;;;;;;;5.22;0.95;;;;;;;;;;4977038;28;20462;-70
2023/01/20 07:37:12;;;;;;;5.80;0.90;;;;;;;;;;4978771;28;20129;-69
2023/01/20 07:39:39;;;;;;;2.60;1.00;;;;;;;;;;4976087;28;20388;-68
2023/01/20 07:42:06;;;;;;;5.93;1.10;;;;;;;;;;4977260;28;20046;-68
2023/01/20 07:44:33;;;;;;;2.58;0.98;;;;;;;;;;4993081;28;20181;-70
2023/01/20 07:47:00;;;;;;;6.68;0.93;;;;;;;;;;4986069;28;20119;-70
2023/01/20 07:49:46;;;;;;;4.57;1.10;;;;;;;;;;5015434;28;20041;-69
2023/01/20 07:52:12;;;;;;;5.53;1.30;;;;;;;;;;5012477;28;20457;-68
2023/01/20 07:54:39;;;;;;;3.65;1.17;;;;;;;;;;5012847;28;20922;-69
2023/01/20 07:57:08;;;;;;;6.53;1.05;;;;;;;;;;4987660;28;20053;-77
2023/01/20 07:59:36;;;;;;;4.30;1.02;;;;;;;;;;4989342;28;20049;-69
2023/01/20 08:02:03;;;;;;;5.38;1.30;;;;;;;;;;4990775;28;20062;-69
2023/01/20 08:04:30;;;;;;;2.40;0.70;;;;;;;;;;4985291;28;20058;-69
2023/01/20 08:06:56;;;;;;;5.30;0.93;;;;;;;;;;4956439;28;20064;-70
2023/01/20 08:09:23;;;;;;;3.25;1.00;;;;;;;;;;4993956;28;20042;-69
2023/01/20 08:11:50;;;;;;;2.80;0.80;;;;;;;;;;4993695;28;20030;-70
2023/01/20 08:14:16;;;;;;;4.25;1.00;;;;;;;;;;4995579;28;20053;-69
2023/01/20 08:16:43;;;;;;;6.15;1.05;;;;;;;;;;4977585;28;20176;-69
2023/01/20 08:19:10;;;;;;;6.63;0.80;;;;;;;;;;4994984;28;20042;-69
2023/01/20 08:21:36;;;;;;;2.38;0.90;;;;;;;;;;4994023;28;20515;-73
2023/01/20 08:24:05;;;;;;;7.78;1.48;;;;;;;;;;4977855;28;20088;-69
2023/01/20 08:26:34;;;;;;;4.85;0.88;;;;;;;;;;4991397;28;21202;-71
2023/01/20 08:29:06;;;;;;;2.40;0.80;;;;;;;;;;4974004;28;20042;-70
2023/01/20 08:31:33;;;;;;;2.80;1.00;;;;;;;;;;4977792;28;20077;-69
2023/01/20 08:33:59;;;;;;;2.85;0.85;;;;;;;;;;4977428;28;20042;-69
2023/01/20 08:36:28;;;;;;;5.13;0.90;;;;;;;;;;4960964;28;20052;-69
2023/01/20 08:38:58;;;;;;;2.42;0.60;;;;;;;;;;4977279;28;20125;-70
2023/01/20 08:41:26;;;;;;;4.15;0.65;;;;;;;;;;4965648;28;20039;-69
2023/01/20 08:43:53;;;;;;;2.75;0.90;;;;;;;;;;4973682;28;20125;-69
2023/01/20 08:46:40;;;;;;;5.07;0.82;;;;;;;;;;4994699;28;20053;-68
2023/01/20 08:49:07;;;;;;;2.83;0.85;;;;;;;;;;4996269;28;20057;-69
2023/01/20 08:51:35;;;;;;;2.83;1.05;;;;;;;;;;4996058;28;20076;-70
2023/01/20 08:54:01;;;;;;;2.55;0.80;;;;;;;;;;4982556;28;20037;-69
2023/01/20 08:56:28;;;;;;;2.90;0.77;;;;;;;;;;4995815;28;20042;-69
2023/01/20 08:58:58;;;;;;;2.22;0.63;;;;;;;;;;5006668;28;20071;-68
2023/01/20 09:01:29;;;;;;;6.22;0.93;;;;;;;;;;4998977;28;20038;-69
2023/01/20 09:03:56;;;;;;;2.45;0.65;;;;;;;;;;5015349;28;20069;-69
2023/01/20 09:06:23;;;;;;;3.78;0.95;;;;;;;;;;5015136;28;20141;-69
2023/01/20 09:08:50;;;;;;;5.05;1.10;;;;;;;;;;5015819;28;20060;-69
2023/01/20 09:11:18;;;;;;;5.32;1.08;;;;;;;;;;5014406;28;20048;-69
2023/01/20 09:13:45;;;;;;;2.92;0.80;;;;;;;;;;4996536;28;20044;-71
2023/01/20 09:16:12;;;;;;;7.40;0.98;;;;;;;;;;5015783;28;20041;-70
2023/01/20 09:18:39;;;;;;;7.70;0.80;;;;;;;;;;5015348;28;20085;-70
2023/01/20 09:21:06;;;;;;;2.72;0.70;;;;;;;;;;5018529;28;20037;-70
2023/01/20 09:23:33;;;;;;;4.75;1.20;;;;;;;;;;4995347;28;20035;-72
2023/01/20 09:26:01;;;;;;;5.88;0.98;;;;;;;;;;4980766;28;20956;-69
2023/01/20 09:28:28;;;;;;;3.55;0.90;;;;;;;;;;4978675;28;20118;-70
2023/01/20 09:30:58;;;;;;;2.90;0.70;;;;;;;;;;4994864;28;20034;-71
2023/01/20 09:33:25;;;;;;;5.95;0.80;;;;;;;;;;4992949;28;20049;-69
2023/01/20 09:35:58;;;;;;;2.13;0.73;;;;;;;;;;4979684;28;20045;-69
2023/01/20 09:44:06;;;;;;;4.13;0.85;;;;;;;;;;4977978;28;20088;-68
2023/01/20 09:47:18;;;;;;;7.43;0.80;;;;;;;;;;4978835;28;20168;-67
2023/01/20 09:55:31;;;;;;;1.98;0.60;;;;;;;;;;4977922;28;20472;-70
2023/01/20 09:58:10;;;;;;;11.23;1.20;;;;;;;;;;4992328;28;20128;-68
2023/01/20 10:00:38;;;;;;;6.55;0.98;;;;;;;;;;4982764;28;20041;-68
2023/01/20 10:03:09;;;;;;;1.95;0.68;;;;;;;;;;4978059;28;20507;-69
2023/01/20 10:05:39;;;;;;;1.90;0.60;;;;;;;;;;4993993;28;20047;-68
2023/01/20 10:08:18;;;;;;;3.50;0.80;;;;;;;;;;4979337;28;20172;-69
2023/01/20 10:10:55;;;;;;;1.42;0.52;;;;;;;;;;4976838;28;20046;-68
2023/01/20 10:13:46;;;;;;;1.58;0.52;;;;;;;;;;4971143;28;20384;-69
2023/01/20 10:16:18;;;;;;;2.85;0.68;;;;;;;;;;4980070;28;20041;-70
2023/01/20 10:18:51;;;;;;;2.28;0.60;;;;;;;;;;4979711;28;20447;-69
2023/01/20 10:21:22;;;;;;;1.42;0.40;;;;;;;;;;4995027;28;20034;-69
2023/01/20 10:23:48;;;;;;;0.65;0.30;;;;;;;;;;4977850;28;20038;-69
2023/01/20 10:26:37;;;;;;;0.45;0.30;;;;;;;;;;4978075;28;20031;-69
2023/01/20 10:29:06;;;;;;;4.85;0.63;;;;;;;;;;4978546;28;20065;-68
2023/01/20 10:31:37;;;;;;;3.15;0.40;;;;;;;;;;4977125;28;20041;-70
2023/01/20 10:34:12;;;;;;;0.50;0.30;;;;;;;;;;4992993;28;20125;-69
2023/01/20 10:36:41;;;;;;;1.55;0.30;;;;;;;;;;4992884;28;20042;-68
2023/01/20 10:39:17;;;;;;;1.42;0.43;;;;;;;;;;4977061;28;20069;-69
2023/01/20 10:41:47;;;;;;;2.03;0.57;;;;;;;;;;4975629;28;20566;-69
2023/01/20 10:44:15;;;;;;;1.38;0.40;;;;;;;;;;4977573;28;20096;-71
2023/01/20 10:46:51;;;;;;;1.25;0.40;;;;;;;;;;4977805;28;20089;-68
2023/01/20 10:49:36;;;;;;;3.17;0.40;;;;;;;;;;4977224;28;20053;-68
2023/01/20 10:52:12;;;;;;;1.23;0.50;;;;;;;;;;4971201;28;20042;-68
2023/01/20 10:55:06;;;;;;;2.42;0.32;;;;;;;;;;4964189;28;20042;-68
2023/01/20 10:57:34;;;;;;;0.65;0.30;;;;;;;;;;4964563;28;20096;-68
2023/01/20 11:00:03;;;;;;;0.30;0.30;;;;;;;;;;4966651;28;20062;-69
2023/01/20 11:02:33;;;;;;;1.92;0.43;;;;;;;;;;4963854;28;20047;-68
2023/01/20 11:05:19;;;;;;;3.78;0.30;;;;;;;;;;4971928;28;20038;-68
2023/01/20 11:07:46;;;;;;;0.90;0.40;;;;;;;;;;4984626;28;20136;-68
2023/01/20 11:10:20;;;;;;;0.80;0.32;;;;;;;;;;4986888;28;20726;-68
2023/01/20 11:12:49;;;;;;;1.20;0.50;;;;;;;;;;4986007;28;20667;-69
2023/01/20 11:15:16;;;;;;;1.48;0.47;;;;;;;;;;4988067;28;20171;-68
2023/01/20 11:17:43;;;;;;;3.63;0.63;;;;;;;;;;4985618;28;20787;-67
2023/01/20 11:20:14;;;;;;;0.32;0.30;;;;;;;;;;4987539;28;20264;-68
2023/01/20 11:22:45;;;;;;;0.95;0.40;;;;;;;;;;4985128;28;20102;-68
2023/01/20 11:25:22;;;;;;;2.05;0.60;;;;;;;;;;4988329;28;20049;-68
2023/01/20 11:27:49;;;;;;;1.08;0.40;;;;;;;;;;4997738;28;20444;-67
2023/01/20 11:30:30;;;;;;;1.08;0.40;;;;;;;;;;5013496;28;20140;-68
2023/01/20 11:33:09;;;;;;;2.70;0.38;;;;;;;;;;4979013;28;20069;-68
2023/01/20 11:35:36;;;;;;;1.35;0.40;;;;;;;;;;4990594;28;20101;-68
2023/01/20 11:38:22;;;;;;;0.70;0.40;;;;;;;;;;4977851;28;20070;-69
2023/01/20 11:40:52;;;;;;;1.73;0.40;;;;;;;;;;4975583;28;20042;-70
2023/01/20 11:43:31;;;;;;;2.72;0.85;;;;;;;;;;4974654;28;20038;-67
2023/01/20 11:46:21;;;;;;;2.65;0.60;;;;;;;;;;4976247;28;20446;-68
2023/01/20 11:48:48;;;;;;;2.20;0.60;;;;;;;;;;4966263;28;20097;-68
2023/01/20 11:51:25;;;;;;;3.53;0.40;;;;;;;;;;4993957;28;20049;-68
2023/01/20 11:54:06;;;;;;;1.17;0.45;;;;;;;;;;4978198;28;20045;-69
2023/01/20 11:56:38;;;;;;;1.13;0.47;;;;;;;;;;4978847;28;20177;-69
2023/01/20 11:59:17;;;;;;;0.77;0.40;;;;;;;;;;4980518;28;20035;-70
2023/01/20 12:02:01;;;;;;;0.38;0.30;;;;;;;;;;4977503;28;20129;-68
2023/01/20 12:04:40;;;;;;;2.28;0.50;;;;;;;;;;4976472;28;20066;-70
2023/01/20 12:07:14;;;;;;;0.68;0.40;;;;;;;;;;4981558;28;20038;-69
2023/01/20 12:09:47;;;;;;;1.95;0.38;;;;;;;;;;4980669;28;20043;-69
2023/01/20 12:12:20;;;;;;;0.73;0.40;;;;;;;;;;4980268;28;20048;-68
2023/01/20 12:14:50;;;;;;;0.93;0.40;;;;;;;;;;4980819;28;20101;-69
2023/01/20 12:17:17;;;;;;;1.95;0.50;;;;;;;;;;4981628;28;20050;-69
2023/01/20 12:20:03;;;;;;;1.10;0.45;;;;;;;;;;4981290;28;20047;-68
2023/01/20 12:22:50;;;;;;;1.30;0.40;;;;;;;;;;4996146;28;20045;-69
2023/01/20 12:25:46;;;;;;;4.45;0.63;;;;;;;;;;4961116;28;20090;-67
2023/01/20 12:28:12;;;;;;;7.03;0.65;;;;;;;;;;4970682;28;20574;-68
2023/01/20 12:30:45;;;;;;;1.15;0.45;;;;;;;;;;4982340;28;20046;-67
2023/01/20 12:33:38;;;;;;;0.93;0.40;;;;;;;;;;4983673;28;20070;-68
2023/01/20 12:36:08;;;;;;;2.25;0.40;;;;;;;;;;4979475;28;21090;-69
2023/01/20 12:38:44;;;;;;;4.30;0.50;;;;;;;;;;4981081;28;20082;-68
2023/01/20 12:41:16;;;;;;;1.88;0.50;;;;;;;;;;4974933;28;20069;-71
2023/01/20 12:43:49;;;;;;;0.55;0.32;;;;;;;;;;4978067;28;20043;-68
2023/01/20 12:46:24;;;;;;;1.40;0.40;;;;;;;;;;4992946;28;20046;-68
2023/01/20 12:48:53;;;;;;;4.57;0.57;;;;;;;;;;4980987;28;20471;-70
2023/01/20 12:51:29;;;;;;;1.90;0.50;;;;;;;;;;4982712;28;20570;-70
2023/01/20 12:53:59;;;;;;;2.90;0.50;;;;;;;;;;4981516;28;20030;-69
2023/01/20 12:56:25;;;;;;;1.30;0.40;;;;;;;;;;4980013;28;20361;-69
2023/01/20 12:59:08;;;;;;;1.38;0.45;;;;;;;;;;4992902;28;20715;-68
2023/01/20 13:01:37;;;;;;;4.10;0.50;;;;;;;;;;4985308;28;20579;-69
2023/01/20 13:04:16;;;;;;;0.98;0.40;;;;;;;;;;4980197;28;20057;-69
2023/01/20 13:07:03;;;;;;;3.85;0.60;;;;;;;;;;4977099;28;20066;-69
2023/01/20 13:09:48;;;;;;;2.03;0.52;;;;;;;;;;4976354;28;20491;-69
2023/01/20 13:12:33;;;;;;;0.82;0.38;;;;;;;;;;4993782;28;20038;-69
2023/01/20 13:15:21;;;;;;;2.78;0.40;;;;;;;;;;4993247;28;20030;-68
2023/01/20 13:18:06;;;;;;;4.40;0.60;;;;;;;;;;4994836;28;20511;-68
2023/01/20 13:20:34;;;;;;;2.85;0.52;;;;;;;;;;4992474;28;20557;-69
2023/01/20 13:23:02;;;;;;;2.65;0.50;;;;;;;;;;4994742;28;20070;-68
2023/01/20 13:25:29;;;;;;;6.05;0.60;;;;;;;;;;4993638;28;20076;-67
2023/01/20 13:27:56;;;;;;;3.88;0.70;;;;;;;;;;4983676;28;20880;-70
2023/01/20 13:30:38;;;;;;;4.10;0.65;;;;;;;;;;4992957;28;20053;-67
2023/01/20 13:33:06;;;;;;;3.95;0.75;;;;;;;;;;4993403;28;20050;-68
2023/01/20 13:35:33;;;;;;;2.00;0.55;;;;;;;;;;4995702;28;20077;-68
2023/01/20 13:38:00;;;;;;;5.95;0.80;;;;;;;;;;4985928;28;20034;-69
2023/01/20 13:40:36;;;;;;;8.02;0.98;;;;;;;;;;4996215;28;20106;-69
2023/01/20 13:43:03;;;;;;;3.72;0.60;;;;;;;;;;4985587;28;20042;-66
2023/01/20 13:45:30;;;;;;;2.10;0.60;;;;;;;;;;4982417;28;20189;-67
2023/01/20 13:48:07;;;;;;;2.40;0.52;;;;;;;;;;4986325;28;20039;-66
2023/01/20 13:50:33;;;;;;;1.67;0.47;;;;;;;;;;4977952;28;20069;-68
2023/01/20 13:53:00;;;;;;;4.43;0.90;;;;;;;;;;4978797;28;20038;-67
2023/01/20 13:55:29;;;;;;;1.58;0.50;;;;;;;;;;4973717;28;20626;-66
2023/01/20 13:57:56;;;;;;;6.65;0.60;;;;;;;;;;4980212;28;20093;-66
2023/01/20 14:00:23;;;;;;;3.63;0.65;;;;;;;;;;4993281;28;20061;-67
2023/01/20 14:02:51;;;;;;;1.27;0.40;;;;;;;;;;4978755;28;20056;-68
2023/01/20 14:05:26;;;;;;;4.50;0.60;;;;;;;;;;4977502;28;20038;-68
2023/01/20 14:07:53;;;;;;;1.38;0.47;;;;;;;;;;4979816;28;20058;-68
2023/01/20 14:10:20;;;;;;;1.00;0.50;;;;;;;;;;4978097;28;20046;-67
2023/01/20 14:13:10;;;;;;;2.55;0.68;;;;;;;;;;4992017;28;20504;-65
2023/01/20 14:15:38;;;;;;;6.72;0.63;;;;;;;;;;4984203;28;20133;-68
2023/01/20 14:18:11;;;;;;;1.92;0.50;;;;;;;;;;4994259;28;20073;-68
2023/01/20 14:20:39;;;;;;;5.55;0.60;;;;;;;;;;4992833;28;20047;-68
2023/01/20 14:23:25;;;;;;;3.90;0.82;;;;;;;;;;4993218;28;20299;-68
2023/01/20 14:26:00;;;;;;;2.33;0.57;;;;;;;;;;4992256;28;20676;-68
2023/01/20 14:28:27;;;;;;;4.30;0.60;;;;;;;;;;4992138;28;20077;-68
2023/01/20 14:31:13;;;;;;;3.58;0.47;;;;;;;;;;4994071;28;20042;-69
2023/01/20 14:33:45;;;;;;;5.35;0.70;;;;;;;;;;4992163;28;20425;-68
2023/01/20 14:36:16;;;;;;;2.05;0.80;;;;;;;;;;4991131;28;20254;-68
2023/01/20 14:38:43;;;;;;;6.65;0.65;;;;;;;;;;4992540;28;20042;-69
2023/01/20 14:41:28;;;;;;;2.05;0.63;;;;;;;;;;4979961;28;20040;-68
2023/01/20 14:43:55;;;;;;;5.22;0.70;;;;;;;;;;4985375;28;20081;-68
2023/01/20 14:46:23;;;;;;;1.67;0.50;;;;;;;;;;4993363;28;20189;-69
2023/01/20 14:48:50;;;;;;;7.13;0.65;;;;;;;;;;4991518;28;20657;-70
2023/01/20 14:51:17;;;;;;;5.68;0.52;;;;;;;;;;4995512;28;20073;-68
2023/01/20 14:53:44;;;;;;;4.47;0.63;;;;;;;;;;5010873;28;20116;-67
2023/01/20 14:56:18;;;;;;;6.97;1.15;;;;;;;;;;5000505;28;20364;-64
2023/01/20 14:58:48;;;;;;;2.03;0.50;;;;;;;;;;4989498;28;20034;-68
2023/01/20 15:01:19;;;;;;;5.15;0.63;;;;;;;;;;5000630;28;20070;-68
2023/01/20 15:03:46;;;;;;;2.30;0.68;;;;;;;;;;4998706;28;20055;-68
2023/01/20 15:06:13;;;;;;;4.53;0.63;;;;;;;;;;4997303;28;20048;-68
2023/01/20 15:08:39;;;;;;;8.02;0.70;;;;;;;;;;5013633;28;20037;-68
2023/01/20 15:11:30;;;;;;;4.35;1.10;;;;;;;;;;5018808;28;20044;-67